Flight Track Log - Related Links

Times and Time Zones

All times are in EDT time to prevent confusion due to time zone crossing. See the SWA36 flight status page for this flight to view local times or setup timezone preferences in your user account.

Time Position Orientation Groundspeed Altitude Reporting Facility
EDT Latitude Longitude Course Direction KTS MPH feet Rate Location/Type
Fri 05:45:00 PM 32.8167 -96.8167 140° Southeast 195 224 2,300  Level Dallas / Fort Worth TRACON
Fri 05:46:00 PM 32.7500 -96.7833 157° South 251 289 4,900 2,429 Climbing Dallas / Fort Worth TRACON
Fri 05:48:25 PM 32.5900 -96.8511 200° South 278 320 10,600 2,400 Climbing Fort Worth Center
Fri 05:49:25 PM 32.5192 -96.8986 209° Southwest 290 334 13,100 2,450 Climbing Fort Worth Center
Fri 05:50:25 PM 32.4422 -96.9506 210° Southwest 312 359 15,500 2,300 Climbing Fort Worth Center
Fri 05:51:25 PM 32.3650 -97.0050 211° Southwest 319 367 17,700 1,700 Climbing Fort Worth Center
Fri 05:52:25 PM 32.2900 -97.0547 209° Southwest 332 382 18,900 1,500 Climbing Fort Worth Center
Fri 05:53:25 PM 32.1731 -97.0647 184° South 356 410 20,700 1,950 Climbing Fort Worth Center
Fri 05:54:25 PM 32.0647 -97.0653 180° South 379 436 22,800 1,800 Climbing Fort Worth Center
Fri 05:55:25 PM 31.9561 -97.0681 181° South 390 449 24,300 1,500 Climbing Fort Worth Center
Fri 05:56:25 PM 31.8517 -97.0711 181° South 402 463 25,800 1,453 Climbing Fort Worth Center
Fri 05:57:33 PM 31.7208 -97.0772 182° South 418 481 27,400 1,385 Climbing Houston Center
Fri 05:58:35 PM 31.5994 -97.0806 181° South 429 494 28,800 1,258 Climbing Houston Center
Fri 05:59:37 PM 31.4792 -97.1011 188° South 440 506 30,000 581 Climbing Houston Center
Fri 06:00:39 PM 31.3433 -97.1550 199° South 437 503 30,000  Level Houston Center
Fri 06:01:41 PM 31.2289 -97.2014 199° South 432 497 30,000  Level Houston Center
Fri 06:02:43 PM 31.1153 -97.2456 198° South 429 494 30,000  Level Houston Center
Fri 06:03:46 PM 31.0103 -97.2864 198° South 431 496 30,000  Level Houston Center
Fri 06:04:48 PM 30.8694 -97.3400 198° South 443 510 30,000  Level Houston Center
Fri 06:05:50 PM 30.7494 -97.3869 199° South 447 514 30,000 -48 Level Houston Center
Fri 06:06:52 PM 30.6331 -97.4322 199° South 440 506 29,900 -1,258 Descending Houston Center
Fri 06:07:54 PM 30.5147 -97.4775 198° South 442 509 27,400 -2,419 Descending Houston Center
Fri 06:08:56 PM 30.3969 -97.5222 198° South 441 507 24,900 -2,371 Descending Houston Center
Fri 06:09:58 PM 30.2953 -97.5892 210° Southwest 422 486 22,500 -2,419 Descending Houston Center
Fri 06:11:00 PM 30.1839 -97.6642 210° Southwest 398 458 19,900 -2,323 Descending Houston Center
Fri 06:12:02 PM 30.0922 -97.7286 211° Southwest 384 442 17,700 -2,160 Descending Houston Center
Fri 06:13:05 PM 29.9992 -97.7928 211° Southwest 370 426 15,400 -2,115 Descending Houston Center
Fri 06:14:04 PM 29.9125 -97.8528 211° Southwest 360 414 13,400 -1,694 Descending Houston Center
Fri 06:15:09 PM 29.8561 -97.9497 236° Southwest 335 386 11,900 -1,512 Descending Houston Center
Fri 06:16:11 PM 29.8128 -98.0389 241° Southwest 314 361 10,200 -1,645 Descending Houston Center
Fri 06:16:11 PM 29.8128 -98.0389 241° Southwest 321 369 10,200 -1,869 Level Houston Center
Fri 06:17:12 PM 29.7692 -98.1333 242° Southwest 310 357 8,300 -1,721 Descending Houston Center
Fri 06:18:13 PM 29.7378 -98.2239 248° West 307 353 6,700 -1,131 Descending Houston Center
Fri 06:19:14 PM 29.7056 -98.3072 246° West 277 319 6,000 -344 Descending Houston Center
Fri 06:20:15 PM 29.6772 -98.3853 247° West 262 302 6,000 -443 Level Houston Center
Fri 06:21:16 PM 29.6522 -98.4556 248° West 232 267 5,100 -1,087 Descending Houston Center
Fri 06:22:22 PM 29.6650 -98.5286 281° West 211 243 3,700 -992 Descending Houston Center
Fri 06:23:17 PM 29.6244 -98.5647 218° Southwest 193 222 3,100 -810 Descending Houston Center
Fri 06:24:28 PM 29.5828 -98.5378 151° Southeast 154 177 2,000 -857 Descending Houston Center
Fri 06:25:30 PM 29.5550 -98.4994 130° Southeast 146 168 1,200 -532 Descending Houston Center
Fri 06:26:32 PM 29.5303 -98.4675 132° Southeast 141 162 900 -290 Descending Houston Center
Fri 06:28:00 PM 29.5333 -98.4667 16° North  Level FlightAware Approximate
Fri 06:35:00 PM 29.5340 -98.4691 16° North  Level Estimated

Login

Don't have an account? Register now (free) for customized features, flight alerts, and more!